Lionhead Wind

Lionhead weather stationLocated on Lionhead Ridge near West Yellowstone. Use the nearest SNOTEL station for snow depth data: Madison Plateau. The data on this page is also available to view at dataGarrison.com.

Elevation
9420ft
Jump to table bottom
Date Time Temperature
deg F
RH, % Wind Speed Wind Gust Wind Direction Pressure Light
01/30/23 17:00 -6.9 86 9 23 W - 268 711.400 0
01/30/23 16:00 -4.6 85 8 22 W - 271 711.220 0
01/30/23 15:00 -1.5 81 10 21 W - 263 711.020 0
01/30/23 14:00 0.0 77 4 12 W - 256 710.600 0
01/30/23 13:00 9.6 83 1 5 NW - 337 710.580 0
01/30/23 12:00 9.5 85 4 15 NW - 330 710.780 0
01/30/23 11:00 4.9 65 3 9 W - 251 710.960 0
01/30/23 10:00 -2.6 68 5 14 NW - 330 710.660 0
01/30/23 09:00 -3.3 68 7 15 NW - 320 710.140 0
01/30/23 08:00 -8.5 67 3 12 NW - 331 709.680 0
01/30/23 07:00 -11.7 83 5 10 NW - 331 709.200 0
01/30/23 06:00 -12.4 82 5 13 NW - 299 708.860 0
01/30/23 05:00 -11.5 86 4 11 NW - 323 708.680 0
01/30/23 04:00 -10.8 88 3 8 NW - 303 708.580 0
01/30/23 03:00 -11.6 79 7 14 NW - 337 708.620 0
01/30/23 02:00 -10.3 83 6 13 NW - 336 708.300 0
01/30/23 01:00 -13.1 86 2 7 N - 352 708.100 0
01/30/23 00:00 -12.9 87 7 17 NW - 319 708.180 0
01/29/23 23:00 -15.2 84 12 17 NW - 326 708.500 0
01/29/23 22:00 -14.6 85 12 20 N - 338 708.520 0
01/29/23 21:00 -15.5 85 16 24 NW - 333 708.340 0
01/29/23 20:00 -16.2 87 14 24 NW - 334 708.200 0
01/29/23 19:00 -17.0 88 18 27 NW - 327 708.140 0
01/29/23 18:00 -17.5 88 18 28 N - 338 707.700 0
01/29/23 17:00 -17.0 87 14 22 NW - 333 707.680 0
01/29/23 16:00 -14.8 86 14 21 NW - 334 707.380 0
01/29/23 15:00 -14.1 83 14 24 NW - 334 707.160 0
01/29/23 14:00 -13.4 84 15 26 N - 338 706.640 0
01/29/23 13:00 -12.4 81 14 26 N - 343 706.980 0
01/29/23 12:00 -13.6 82 17 28 N - 338 707.200 0
01/29/23 11:00 -14.1 81 17 28 NW - 334 707.320 0
01/29/23 10:00 -14.3 81 22 37 NW - 326 707.060 0
01/29/23 09:00 -14.5 82 23 35 NW - 326 706.640 0
01/29/23 08:00 -13.2 85 18 27 NW - 327 706.440 0
01/29/23 07:00 -14.7 90 14 27 NW - 334 706.000 0
01/29/23 06:00 -12.6 89 11 18 NW - 334 705.920 0
01/29/23 05:00 -12.7 89 10 17 N - 0 705.780 0
01/29/23 04:00 -11.4 89 11 19 N - 357 705.780 0
01/29/23 03:00 -10.8 90 14 21 N - 3 705.840 0
01/29/23 02:00 -10.3 90 11 15 N - 17 705.860 0
01/29/23 01:00 -10.4 90 11 14 NE - 27 705.940 0
01/29/23 00:00 -10.4 90 11 14 NE - 28 706.120 0
01/28/23 23:00 -9.8 90 12 15 NE - 28 706.320 0
01/28/23 22:00 -9.1 91 10 15 N - 20 706.420 0
01/28/23 21:00 -8.4 90 9 12 N - 18 706.580 0
01/28/23 20:00 -6.7 91 8 12 N - 17 706.420 0
01/28/23 19:00 -5.3 92 10 14 NE - 24 706.300 0
01/28/23 18:00 -4.8 92 9 13 NE - 25 706.160 0
01/28/23 17:00 -3.3 92 8 11 NE - 32 705.980 0
01/28/23 16:00 -0.6 92 8 11 NE - 37 705.840 0